Time;durP1;ratioP1;P1;durP2;ratioP2;P2;SDS_P1;SDS_P2;PMS_P1;PMS_P2;Temp;Humidity;BMP_temperature;BMP_pressure;BME280_temperature;BME280_humidity;BME280_pressure;Samples;Min_cycle;Max_cycle;Signal;HPM_P1;HPM_P2
2023/09/01 00:00:17;;;;;;;3.20;2.00;;;;;;;16.14;85.86;98704.55;109164;1257;58868;-23
2023/09/01 00:02:49;;;;;;;6.00;2.80;;;;;;;16.62;83.65;98707.38;109093;1257;60057;-23
2023/09/01 00:05:16;;;;;;;4.30;2.60;;;;;;;16.64;82.62;98712.79;109178;1258;72592;-23
2023/09/01 00:07:44;;;;;;;4.80;2.80;;;;;;;16.48;82.69;98716.59;109096;1257;74434;-23
2023/09/01 00:10:12;;;;;;;5.10;2.90;;;;;;;16.25;83.25;98717.06;109142;1256;72697;-23
2023/09/01 00:12:39;;;;;;;5.00;2.70;;;;;;;16.00;84.26;98719.04;109045;1258;58883;-23
2023/09/01 00:15:07;;;;;;;3.00;1.70;;;;;;;15.82;85.89;98719.95;109083;1258;58796;-23
2023/09/01 00:17:34;;;;;;;3.70;2.20;;;;;;;16.27;85.91;98722.11;109053;1257;73936;-23
2023/09/01 00:20:03;;;;;;;3.80;2.70;;;;;;;16.79;83.97;98720.36;109069;1257;73070;-23
2023/09/01 00:22:31;;;;;;;5.20;2.70;;;;;;;16.86;82.52;98725.86;108997;1257;73147;-23
2023/09/01 00:24:59;;;;;;;3.90;3.00;;;;;;;16.71;82.51;98724.41;108994;1258;60056;-23
2023/09/01 00:27:26;;;;;;;4.40;3.30;;;;;;;16.51;82.77;98730.52;109098;1257;59314;-23
2023/09/01 00:29:54;;;;;;;5.50;3.40;;;;;;;16.31;83.49;98731.17;109103;1258;73821;-23
2023/09/01 00:32:21;;;;;;;4.20;2.50;;;;;;;16.15;84.15;98735.27;109011;1257;74339;-23
2023/09/01 00:34:56;;;;;;;4.30;2.30;;;;;;;16.60;84.12;98730.94;108968;1258;72703;-23
2023/09/01 00:37:24;;;;;;;3.50;2.60;;;;;;;17.11;82.20;98733.70;109010;1258;60074;-23
2023/09/01 00:39:52;;;;;;;4.80;2.80;;;;;;;17.14;81.42;98739.13;109062;1257;60071;-23
2023/09/01 00:42:20;;;;;;;3.60;2.90;;;;;;;16.96;81.55;98738.34;109048;1257;73900;-23
2023/09/01 00:44:48;;;;;;;4.10;3.20;;;;;;;16.72;82.35;98740.94;109078;1257;73309;-22
2023/09/01 00:47:16;;;;;;;3.90;2.80;;;;;;;16.49;82.95;98741.48;109043;1257;71380;-23
2023/09/01 00:49:44;;;;;;;3.00;2.00;;;;;;;16.32;83.82;98739.30;108996;1257;60401;-23
2023/09/01 00:52:12;;;;;;;3.40;2.30;;;;;;;16.79;83.58;98740.56;109180;1257;58797;-23
2023/09/01 00:54:39;;;;;;;3.30;2.30;;;;;;;17.27;81.53;98741.63;109058;1260;73875;-23
2023/09/01 00:57:07;;;;;;;5.50;2.70;;;;;;;17.27;80.62;98748.54;109080;1257;73361;-23
2023/09/01 00:59:36;;;;;;;4.50;3.00;;;;;;;17.02;80.98;98748.51;108982;1259;72725;-23
2023/09/01 01:02:04;;;;;;;4.20;3.20;;;;;;;16.77;81.91;98753.56;108917;1257;60066;-23
2023/09/01 01:04:32;;;;;;;7.70;3.30;;;;;;;16.55;82.45;98757.05;108983;1263;59998;-23
2023/09/01 01:07:19;;;;;;;3.00;2.10;;;;;;;16.36;83.51;98756.52;108992;1259;73880;-22
2023/09/01 01:10:00;;;;;;;2.70;2.10;;;;;;;16.86;83.44;98757.79;109095;1259;73306;-23
2023/09/01 01:12:36;;;;;;;3.80;2.40;;;;;;;17.28;81.53;98758.80;108932;1262;71482;-23
2023/09/01 01:15:09;;;;;;;3.30;2.60;;;;;;;17.19;80.94;98762.21;108921;1260;58841;-23
2023/09/01 01:17:38;;;;;;;3.90;3.10;;;;;;;16.91;81.87;98763.09;108896;1259;59989;-23
2023/09/01 01:20:16;;;;;;;6.50;2.80;;;;;;;16.59;83.40;98763.63;108816;1259;71597;-23
2023/09/01 01:22:49;;;;;;;2.80;2.50;;;;;;;16.32;84.95;98760.66;109010;1258;74346;-22
2023/09/01 01:25:17;;;;;;;3.60;2.40;;;;;;;16.71;84.75;98759.98;109050;1258;72740;-23
2023/09/01 01:27:45;;;;;;;5.30;2.70;;;;;;;17.07;82.76;98757.75;108980;1259;60042;-23
2023/09/01 01:30:13;;;;;;;6.90;3.10;;;;;;;17.07;82.24;98762.45;109050;1259;58916;-23
2023/09/01 01:32:41;;;;;;;6.70;3.00;;;;;;;16.92;82.44;98762.63;109078;1258;72639;-22
2023/09/01 01:35:10;;;;;;;7.30;3.10;;;;;;;16.71;82.97;98764.70;108950;1258;73067;-23
2023/09/01 01:37:45;;;;;;;3.70;2.20;;;;;;;16.54;84.02;98766.42;108990;1263;72674;-23
2023/09/01 01:40:12;;;;;;;4.70;2.00;;;;;;;16.94;83.91;98766.23;108922;1257;58894;-23
2023/09/01 01:42:40;;;;;;;4.10;2.80;;;;;;;17.35;82.14;98765.25;109024;1259;59342;-23
2023/09/01 01:45:08;;;;;;;3.70;2.90;;;;;;;17.33;81.62;98761.33;108998;1259;73856;-23
2023/09/01 01:47:36;;;;;;;4.50;2.70;;;;;;;17.14;81.91;98757.35;108972;1259;74318;-23
2023/09/01 01:50:05;;;;;;;6.20;2.90;;;;;;;16.89;82.52;98756.22;108931;1258;71780;-23
2023/09/01 01:52:33;;;;;;;4.00;2.90;;;;;;;16.66;83.33;98759.36;108941;1257;60059;-23
2023/09/01 01:55:01;;;;;;;4.00;2.30;;;;;;;16.50;84.37;98759.34;109013;1259;60030;-23
2023/09/01 01:57:29;;;;;;;3.30;2.00;;;;;;;16.92;84.06;98758.41;108987;1259;72585;-23
2023/09/01 01:59:57;;;;;;;3.40;2.40;;;;;;;17.34;81.97;98762.84;108962;1260;74334;-23
2023/09/01 02:02:29;;;;;;;4.20;3.00;;;;;;;17.32;81.25;98762.73;108989;1260;72812;-23
2023/09/01 02:04:59;;;;;;;5.90;3.10;;;;;;;17.09;81.60;98758.77;108971;1259;60286;-23
2023/09/01 02:07:30;;;;;;;5.30;3.50;;;;;;;16.80;82.73;98764.48;108945;1258;60174;-23
2023/09/01 02:10:05;;;;;;;8.10;4.10;;;;;;;16.51;84.02;98765.51;108882;1260;73819;-23
2023/09/01 02:12:36;;;;;;;4.10;2.70;;;;;;;16.33;84.94;98767.35;108965;1260;74285;-23
2023/09/01 02:15:08;;;;;;;4.30;2.40;;;;;;;16.82;84.65;98766.36;108896;1258;70924;-23
2023/09/01 02:17:38;;;;;;;5.70;2.50;;;;;;;17.30;82.37;98762.89;109071;1257;58920;-23
2023/09/01 02:20:17;;;;;;;5.10;2.90;;;;;;;17.32;81.52;98759.72;108954;1259;58726;-23
2023/09/01 02:22:50;;;;;;;8.30;3.70;;;;;;;17.14;81.76;98761.96;109006;1258;74618;-23
2023/09/01 02:25:21;;;;;;;6.20;3.60;;;;;;;16.94;82.43;98761.90;108956;1260;74355;-23
2023/09/01 02:27:51;;;;;;;5.50;3.60;;;;;;;16.71;82.84;98767.84;108996;1259;71734;-22
2023/09/01 02:30:21;;;;;;;4.60;2.60;;;;;;;16.53;83.24;98770.56;108983;1258;60396;-23
2023/09/01 02:32:51;;;;;;;3.70;2.50;;;;;;;16.97;83.39;98771.66;109006;1260;60095;-23
2023/09/01 02:35:21;;;;;;;5.80;3.40;;;;;;;17.47;81.79;98774.08;109019;1258;73947;-23
2023/09/01 02:37:52;;;;;;;4.00;3.20;;;;;;;17.51;81.00;98774.39;108934;1260;73163;-23
2023/09/01 02:40:24;;;;;;;5.00;3.50;;;;;;;17.32;81.07;98776.69;108985;1260;71477;-23
2023/09/01 02:42:55;;;;;;;5.60;3.60;;;;;;;17.06;81.41;98776.46;108997;1258;60228;-23
2023/09/01 02:45:25;;;;;;;9.00;4.80;;;;;;;16.77;82.19;98783.48;108889;1260;60011;-23
2023/09/01 02:47:55;;;;;;;4.60;2.70;;;;;;;16.50;84.64;98789.46;109013;1259;72614;-23
2023/09/01 02:50:26;;;;;;;4.60;2.70;;;;;;;17.00;84.35;98790.33;108956;1259;74384;-23
2023/09/01 02:52:57;;;;;;;5.70;2.80;;;;;;;17.50;81.88;98791.99;109014;1259;72632;-23
2023/09/01 02:55:27;;;;;;;4.90;3.40;;;;;;;17.55;80.57;98789.19;108971;1260;58844;-23
2023/09/01 02:57:57;;;;;;;6.90;3.30;;;;;;;17.37;80.04;98794.38;108923;1260;60073;-23
2023/09/01 03:07:02;;;;;;;3.70;2.40;;;;;;;16.48;82.80;98798.46;102615;1292;600216;-22
2023/09/01 03:09:30;;;;;;;7.00;2.60;;;;;;;16.70;83.14;98797.59;105195;1264;61036;-22
2023/09/01 03:11:58;;;;;;;3.90;2.80;;;;;;;17.12;81.43;98797.78;105230;1266;61167;-22
2023/09/01 03:14:25;;;;;;;6.40;3.60;;;;;;;17.14;80.21;98797.50;105200;1266;72182;-22
2023/09/01 03:16:53;;;;;;;4.30;3.70;;;;;;;16.96;80.45;98802.64;105133;1264;74317;-22
2023/09/01 03:19:21;;;;;;;5.30;3.90;;;;;;;16.65;81.24;98810.59;105204;1263;72361;-22
2023/09/01 03:21:49;;;;;;;7.30;4.00;;;;;;;16.30;82.01;98812.96;103088;1260;2947374;-22
2023/09/01 03:24:16;;;;;;;5.30;2.80;;;;;;;16.07;83.53;98815.66;105245;1260;61128;-22
2023/09/01 03:34:23;;;;;;;8.80;4.20;;;;;;;16.90;81.00;98815.95;102732;1290;600247;-22
2023/09/01 03:36:53;;;;;;;4.50;3.50;;;;;;;16.50;81.99;98822.53;105115;1264;61148;-22
2023/09/01 03:39:21;;;;;;;9.30;4.70;;;;;;;16.17;83.77;98830.59;105236;1267;61186;-22
2023/09/01 03:41:49;;;;;;;4.60;3.40;;;;;;;15.93;86.47;98831.40;105233;1267;72243;-22
2023/09/01 03:44:17;;;;;;;6.70;3.90;;;;;;;16.32;86.80;98833.78;108901;1260;73199;-23
2023/09/01 03:46:45;;;;;;;6.50;4.60;;;;;;;16.79;84.84;98825.39;108805;1260;72628;-22
2023/09/01 03:49:13;;;;;;;7.00;4.60;;;;;;;16.83;84.28;98831.25;106751;1259;2907205;-23
2023/09/01 03:51:40;;;;;;;5.80;4.30;;;;;;;16.73;84.56;98832.98;109005;1259;59210;-23
2023/09/01 03:54:08;;;;;;;7.90;5.90;;;;;;;16.60;84.42;98836.20;108940;1259;72207;-23
2023/09/01 03:56:35;;;;;;;7.60;3.90;;;;;;;16.47;85.15;98833.36;109016;1258;74250;-23
2023/09/01 03:59:03;;;;;;;6.20;3.60;;;;;;;16.92;84.92;98830.42;108980;1260;71567;-23
2023/09/01 04:01:31;;;;;;;12.60;4.20;;;;;;;17.46;82.82;98825.71;108887;1260;58750;-23
2023/09/01 04:04:01;;;;;;;6.60;4.60;;;;;;;17.58;81.76;98827.80;108898;1260;60049;-23
2023/09/01 04:06:29;;;;;;;6.60;4.70;;;;;;;17.44;81.56;98825.16;108951;1260;72100;-23
2023/09/01 04:08:56;;;;;;;6.50;5.10;;;;;;;17.16;82.03;98828.69;108914;1260;74372;-23
2023/09/01 04:11:24;;;;;;;6.40;4.70;;;;;;;16.88;82.94;98827.32;108920;1260;72834;-23
2023/09/01 04:13:52;;;;;;;4.40;3.10;;;;;;;16.69;84.01;98830.34;108933;1260;61768;-23
2023/09/01 04:16:19;;;;;;;5.60;3.70;;;;;;;17.16;83.77;98829.86;108960;1260;60134;-23
2023/09/01 04:18:47;;;;;;;7.20;3.70;;;;;;;17.70;82.01;98829.81;108921;1260;73054;-23
2023/09/01 04:21:15;;;;;;;7.60;4.20;;;;;;;17.76;80.89;98825.13;108921;1260;74326;-23
2023/09/01 04:23:43;;;;;;;7.70;4.30;;;;;;;17.58;80.96;98827.67;108932;1260;72841;-23
2023/09/01 04:26:12;;;;;;;7.40;4.60;;;;;;;17.32;81.29;98827.29;108858;1260;60122;-23
2023/09/01 04:28:39;;;;;;;8.10;4.00;;;;;;;17.03;82.13;98829.55;108923;1260;59871;-23
2023/09/01 04:31:27;;;;;;;8.70;3.30;;;;;;;16.85;83.11;98832.23;108940;1260;71922;-23
2023/09/01 04:33:57;;;;;;;4.80;2.90;;;;;;;17.41;83.10;98829.79;108870;1260;73684;-23
2023/09/01 04:36:28;;;;;;;6.40;3.60;;;;;;;17.83;81.16;98833.07;109084;1256;71478;-23
2023/09/01 04:39:13;;;;;;;7.30;4.20;;;;;;;17.77;80.69;98834.36;109088;1260;58857;-22
2023/09/01 04:41:41;;;;;;;10.80;5.00;;;;;;;17.61;80.77;98831.46;109050;1256;60033;-23
2023/09/01 04:44:08;;;;;;;7.60;5.10;;;;;;;17.19;82.22;98830.30;109141;1257;71834;-23
2023/09/01 04:46:36;;;;;;;5.80;3.40;;;;;;;16.98;83.49;98839.60;109031;1257;73169;-23
2023/09/01 04:49:03;;;;;;;7.30;3.70;;;;;;;17.37;83.24;98840.87;109077;1257;72627;-24
2023/09/01 04:51:31;;;;;;;7.70;4.60;;;;;;;17.80;81.50;98844.02;109100;1257;59202;-23
2023/09/01 04:53:58;;;;;;;7.90;4.30;;;;;;;17.80;80.90;98846.68;109069;1257;60010;-23
2023/09/01 04:56:26;;;;;;;5.80;5.00;;;;;;;17.63;81.45;98849.31;109097;1257;73056;-23
2023/09/01 04:58:54;;;;;;;5.70;4.90;;;;;;;17.39;82.42;98853.58;109090;1258;74324;-23
2023/09/01 05:01:21;;;;;;;9.90;6.20;;;;;;;17.12;83.54;98854.36;109071;1260;72669;-23
2023/09/01 05:03:49;;;;;;;5.50;4.20;;;;;;;16.88;84.92;98854.05;109040;1260;60365;-23
2023/09/01 05:06:16;;;;;;;5.50;4.60;;;;;;;17.26;84.83;98852.77;109069;1260;58827;-23
2023/09/01 05:08:44;;;;;;;6.20;5.10;;;;;;;17.63;83.08;98849.84;109045;1259;71753;-23
2023/09/01 05:11:11;;;;;;;8.20;5.10;;;;;;;17.61;82.80;98852.36;109078;1260;74264;-23
2023/09/01 05:13:39;;;;;;;7.50;5.80;;;;;;;17.44;83.36;98851.11;109011;1260;71698;-23
2023/09/01 05:16:07;;;;;;;8.90;5.80;;;;;;;17.26;84.26;98855.92;109009;1260;60148;-24
2023/09/01 05:18:35;;;;;;;6.00;4.00;;;;;;;17.11;85.55;98860.13;109084;1260;60036;-23
2023/09/01 05:21:02;;;;;;;6.00;4.60;;;;;;;17.51;85.20;98866.02;109099;1258;72715;-23
2023/09/01 05:23:32;;;;;;;7.30;5.00;;;;;;;17.83;82.95;98866.09;109020;1260;72577;-23
2023/09/01 05:26:00;;;;;;;10.70;5.90;;;;;;;17.78;82.75;98867.90;108980;1261;72675;-23
2023/09/01 05:28:27;;;;;;;8.20;6.00;;;;;;;17.59;83.55;98872.77;108972;1257;60083;-23
2023/09/01 05:30:56;;;;;;;9.00;5.80;;;;;;;17.36;84.39;98878.90;109060;1258;60039;-23
2023/09/01 05:33:24;;;;;;;5.60;4.60;;;;;;;17.17;85.90;98880.89;108934;1260;73003;-23
2023/09/01 05:35:51;;;;;;;4.90;4.00;;;;;;;17.60;85.25;98880.07;109029;1260;73586;-23
2023/09/01 05:38:19;;;;;;;6.80;5.40;;;;;;;18.02;83.01;98884.54;108939;1259;72446;-23
2023/09/01 05:41:00;;;;;;;6.30;4.80;;;;;;;18.02;82.27;98883.09;108952;1260;60073;-23
2023/09/01 05:43:29;;;;;;;6.90;5.40;;;;;;;17.90;83.09;98883.17;108892;1260;60038;-23
2023/09/01 05:45:56;;;;;;;9.60;6.30;;;;;;;17.72;83.72;98881.54;108910;1260;72146;-23
2023/09/01 05:48:25;;;;;;;9.00;4.70;;;;;;;17.54;84.80;98881.60;108960;1259;74357;-23
2023/09/01 05:50:54;;;;;;;9.30;6.20;;;;;;;17.88;84.31;98877.20;109004;1259;72686;-23
2023/09/01 05:53:22;;;;;;;7.90;5.10;;;;;;;18.28;82.54;98877.65;108863;1258;58807;-23
2023/09/01 05:55:49;;;;;;;6.90;6.20;;;;;;;18.34;81.92;98876.17;109095;1260;60053;-23
2023/09/01 05:58:17;;;;;;;7.10;6.20;;;;;;;18.19;82.36;98872.00;109033;1259;71866;-24
2023/09/01 06:00:44;;;;;;;8.90;6.60;;;;;;;17.95;83.56;98873.80;108990;1260;74322;-23
2023/09/01 06:03:14;;;;;;;6.60;4.50;;;;;;;17.92;84.82;98872.41;109012;1260;72691;-23
2023/09/01 06:05:41;;;;;;;9.90;5.90;;;;;;;18.38;83.36;98875.58;109270;1257;60062;-23
2023/09/01 06:08:09;;;;;;;8.10;5.70;;;;;;;18.86;81.74;98878.27;109270;1257;60028;-23
2023/09/01 06:10:36;;;;;;;7.10;5.60;;;;;;;18.90;79.86;98879.30;109394;1256;71476;-23
2023/09/01 06:13:04;;;;;;;7.20;5.90;;;;;;;18.71;80.36;98881.76;109418;1256;74296;-23
2023/09/01 06:15:32;;;;;;;7.60;6.20;;;;;;;18.46;81.52;98883.59;109240;1259;71387;-23
2023/09/01 06:17:59;;;;;;;7.30;4.60;;;;;;;18.30;82.62;98892.16;109302;1257;60390;-23
2023/09/01 06:20:28;;;;;;;6.20;5.10;;;;;;;18.64;81.73;98892.17;109330;1257;60029;-23
2023/09/01 06:22:56;;;;;;;7.40;5.50;;;;;;;19.04;80.01;98893.48;109110;1260;71859;-23
2023/09/01 06:25:24;;;;;;;7.60;5.40;;;;;;;19.08;80.48;98894.67;109398;1257;73182;-23
2023/09/01 06:27:52;;;;;;;8.20;6.20;;;;;;;18.93;80.20;98895.50;109396;1255;72649;-23
2023/09/01 06:30:19;;;;;;;8.50;6.70;;;;;;;18.72;80.26;98891.34;109412;1254;58901;-23
2023/09/01 06:32:47;;;;;;;8.60;6.30;;;;;;;18.63;81.25;98891.18;109392;1256;59124;-23
2023/09/01 06:35:17;;;;;;;8.90;4.30;;;;;;;18.58;81.79;98889.25;109412;1255;72797;-24
2023/09/01 06:37:44;;;;;;;6.10;4.70;;;;;;;19.13;80.02;98889.74;109264;1257;74314;-23
2023/09/01 06:40:12;;;;;;;8.20;5.40;;;;;;;19.52;78.31;98887.55;109411;1257;72626;-23
2023/09/01 06:42:39;;;;;;;8.00;5.40;;;;;;;19.64;76.92;98885.43;109380;1255;60100;-23
2023/09/01 06:45:07;;;;;;;7.30;5.80;;;;;;;19.65;76.84;98886.61;109247;1257;60175;-23
2023/09/01 06:47:35;;;;;;;10.10;6.40;;;;;;;19.46;77.46;98885.82;109416;1257;73056;-23
2023/09/01 06:50:05;;;;;;;9.30;6.20;;;;;;;19.25;77.27;98887.57;109417;1255;74371;-23
2023/09/01 06:52:32;;;;;;;8.50;6.10;;;;;;;19.10;77.91;98887.48;109268;1255;72405;-23
2023/09/01 06:55:00;;;;;;;9.60;4.30;;;;;;;19.04;78.05;98892.92;109154;1258;61647;-23
2023/09/01 06:57:27;;;;;;;6.60;5.30;;;;;;;19.61;76.66;98893.02;109484;1257;60065;-23
2023/09/01 06:59:55;;;;;;;5.70;5.00;;;;;;;20.05;74.54;98895.34;109192;1256;73121;-23
2023/09/01 07:02:23;;;;;;;6.70;5.60;;;;;;;20.14;73.38;98904.64;109151;1256;74331;-23
2023/09/01 07:04:50;;;;;;;7.80;5.20;;;;;;;20.12;73.69;98900.93;109072;1256;72683;-23
2023/09/01 07:07:18;;;;;;;6.50;5.70;;;;;;;20.12;73.65;98907.50;109236;1257;58813;-23
2023/09/01 07:09:45;;;;;;;8.00;5.20;;;;;;;19.86;73.08;98914.75;109158;1256;58759;-23
2023/09/01 07:12:13;;;;;;;10.50;5.50;;;;;;;19.76;73.61;98917.61;109229;1257;73032;-23
2023/09/01 07:14:41;;;;;;;6.50;5.20;;;;;;;19.80;73.12;98920.70;109158;1257;74312;-23
2023/09/01 07:17:11;;;;;;;7.00;5.40;;;;;;;19.88;74.13;98925.38;109137;1257;72860;-23
2023/09/01 07:19:38;;;;;;;5.50;4.10;;;;;;;20.18;73.90;98928.41;108981;1257;60593;-23
2023/09/01 07:22:06;;;;;;;6.60;4.50;;;;;;;20.67;71.23;98923.21;109114;1263;58817;-23
2023/09/01 07:24:33;;;;;;;9.00;4.90;;;;;;;20.76;70.00;98926.92;109093;1257;73080;-23
2023/09/01 07:27:02;;;;;;;5.50;4.80;;;;;;;20.72;69.46;98924.71;109264;1256;74356;-23
2023/09/01 07:29:29;;;;;;;7.30;5.50;;;;;;;20.36;70.42;98929.14;109071;1257;72722;-24
2023/09/01 07:31:59;;;;;;;7.50;5.60;;;;;;;20.04;71.68;98930.86;109231;1257;58982;-23
2023/09/01 07:34:27;;;;;;;6.10;5.50;;;;;;;19.82;72.28;98935.06;109098;1257;58807;-23
2023/09/01 07:36:54;;;;;;;6.30;5.10;;;;;;;19.77;72.92;98934.25;109108;1257;73082;-23
2023/09/01 07:39:22;;;;;;;6.90;6.20;;;;;;;19.78;73.46;98938.77;109191;1257;74376;-23
2023/09/01 07:41:49;;;;;;;7.70;6.90;;;;;;;19.75;73.35;98941.54;109240;1255;71440;-23
2023/09/01 07:44:17;;;;;;;9.40;6.70;;;;;;;19.81;73.54;98939.36;109110;1257;58819;-23
2023/09/01 07:46:45;;;;;;;6.20;5.10;;;;;;;19.81;71.94;98937.95;109264;1258;60030;-23
2023/09/01 07:49:13;;;;;;;5.90;5.00;;;;;;;20.29;70.30;98940.95;109090;1257;73903;-23
2023/09/01 07:51:42;;;;;;;6.80;5.40;;;;;;;20.57;68.88;98948.31;109126;1256;74343;-23
2023/09/01 07:54:10;;;;;;;6.00;5.00;;;;;;;20.50;69.12;98951.94;109114;1257;72666;-23
2023/09/01 07:56:38;;;;;;;6.10;5.40;;;;;;;20.44;69.18;98952.23;109103;1256;58798;-23
2023/09/01 07:59:05;;;;;;;5.70;5.10;;;;;;;20.10;69.99;98953.29;109100;1256;58924;-23
2023/09/01 08:01:33;;;;;;;5.80;5.20;;;;;;;19.94;71.08;98954.05;109182;1257;73186;-23
2023/09/01 08:04:01;;;;;;;6.70;5.80;;;;;;;19.84;71.90;98953.67;109126;1257;74325;-23
2023/09/01 08:06:31;;;;;;;10.00;5.80;;;;;;;19.94;71.33;98955.09;109126;1256;71381;-23
2023/09/01 08:08:59;;;;;;;7.40;6.30;;;;;;;19.88;71.19;98957.04;109103;1257;60183;-23
2023/09/01 08:11:26;;;;;;;7.40;5.90;;;;;;;19.90;72.21;98959.64;109090;1257;59245;-23
2023/09/01 08:13:54;;;;;;;7.30;6.20;;;;;;;20.23;72.09;98964.66;109108;1256;72338;-23
2023/09/01 08:16:22;;;;;;;7.10;6.40;;;;;;;20.41;70.89;98967.37;109235;1257;74329;-23
2023/09/01 08:18:49;;;;;;;8.30;5.80;;;;;;;20.42;70.29;98966.23;109101;1257;72905;-23
2023/09/01 08:21:17;;;;;;;9.40;5.90;;;;;;;20.66;69.86;98967.51;109084;1259;60066;-23
2023/09/01 08:23:46;;;;;;;6.20;5.60;;;;;;;20.74;67.75;98966.31;109278;1256;59195;-23
2023/09/01 08:26:14;;;;;;;5.70;5.10;;;;;;;20.79;66.35;98966.48;109046;1257;73846;-23
2023/09/01 08:28:42;;;;;;;7.40;5.40;;;;;;;20.98;65.68;98966.35;109121;1257;74388;-23
2023/09/01 08:31:09;;;;;;;5.40;4.70;;;;;;;21.26;64.72;98959.33;109105;1256;71622;-23
2023/09/01 08:33:37;;;;;;;8.00;5.90;;;;;;;21.48;64.07;98960.52;109085;1257;60111;-23
2023/09/01 08:36:05;;;;;;;6.80;5.40;;;;;;;21.74;64.15;98967.79;109129;1257;58787;-23
2023/09/01 08:38:33;;;;;;;6.00;5.00;;;;;;;21.96;63.19;98963.72;109097;1257;72579;-23
2023/09/01 08:41:02;;;;;;;6.20;4.00;;;;;;;21.92;61.60;98961.95;109103;1257;74341;-23
2023/09/01 08:43:32;;;;;;;5.20;4.70;;;;;;;21.80;62.66;98967.93;109052;1257;72681;-23
2023/09/01 08:46:01;;;;;;;5.30;4.10;;;;;;;21.61;62.96;98962.21;109060;1257;58800;-23
2023/09/01 08:48:41;;;;;;;5.00;4.50;;;;;;;21.53;62.50;98963.71;108982;1257;58768;-23
2023/09/01 08:51:09;;;;;;;4.30;3.90;;;;;;;21.59;62.03;98966.91;109093;1257;73693;-23
2023/09/01 08:53:38;;;;;;;5.90;4.00;;;;;;;21.74;62.04;98973.42;109101;1257;73023;-23
2023/09/01 08:56:07;;;;;;;5.10;4.10;;;;;;;21.80;62.04;98967.41;109005;1257;70405;-23
2023/09/01 08:58:36;;;;;;;4.60;4.00;;;;;;;21.63;62.11;98978.23;109068;1256;59784;-23
2023/09/01 09:01:03;;;;;;;4.50;3.90;;;;;;;21.26;63.60;98978.08;109090;1257;60085;-23
2023/09/01 09:03:32;;;;;;;4.60;4.00;;;;;;;21.15;64.56;98981.23;109136;1257;73839;-23
2023/09/01 09:06:03;;;;;;;4.90;3.80;;;;;;;21.01;64.96;98982.70;109163;1257;73143;-23
2023/09/01 09:08:31;;;;;;;6.10;3.90;;;;;;;20.75;65.72;98983.12;109077;1257;71680;-23
2023/09/01 09:10:59;;;;;;;5.40;3.70;;;;;;;20.83;65.93;98982.78;109063;1258;60243;-23
2023/09/01 09:13:28;;;;;;;6.30;3.90;;;;;;;21.06;65.61;98978.86;109075;1260;58755;-23
2023/09/01 09:16:09;;;;;;;6.00;3.70;;;;;;;21.57;64.39;98976.33;109014;1257;72546;-23
2023/09/01 09:18:43;;;;;;;3.80;3.40;;;;;;;22.04;61.33;98974.63;109081;1257;73101;-23
2023/09/01 09:21:28;;;;;;;3.40;2.50;;;;;;;21.97;58.50;98968.37;109029;1257;72682;-23
2023/09/01 09:23:57;;;;;;;3.30;2.50;;;;;;;21.85;58.43;98981.39;108984;1258;60134;-23
2023/09/01 09:26:45;;;;;;;5.20;3.00;;;;;;;22.07;58.55;98975.30;108990;1257;59996;-23
2023/09/01 09:29:14;;;;;;;4.20;3.20;;;;;;;22.50;57.30;98972.95;109142;1257;72671;-23
2023/09/01 09:31:44;;;;;;;5.90;2.70;;;;;;;22.60;57.47;98973.52;109042;1257;74282;-23
2023/09/01 09:34:14;;;;;;;3.80;2.40;;;;;;;22.89;55.57;98973.94;109081;1257;72715;-23
2023/09/01 09:36:42;;;;;;;5.00;2.30;;;;;;;23.10;54.04;98975.77;108936;1257;58821;-23
2023/09/01 09:39:21;;;;;;;7.70;2.90;;;;;;;23.08;54.38;98977.88;108959;1257;58742;-23
2023/09/01 09:41:49;;;;;;;5.40;2.70;;;;;;;23.36;54.26;98975.15;109032;1257;72603;-23
2023/09/01 09:44:27;;;;;;;2.50;2.30;;;;;;;23.56;53.49;98978.38;109122;1257;73221;-23
2023/09/01 09:46:55;;;;;;;3.40;2.60;;;;;;;23.86;52.30;98977.98;109092;1257;72198;-25
2023/09/01 09:53:29;;;;;;;5.10;2.20;;;;;;;23.91;50.35;98983.65;109169;1256;58801;-23
2023/09/01 09:55:57;;;;;;;3.20;2.20;;;;;;;22.91;52.13;98984.33;109075;1257;71469;-23
2023/09/01 09:58:31;;;;;;;3.70;2.30;;;;;;;22.53;53.43;98989.91;109091;1257;74251;-23
2023/09/01 10:01:07;;;;;;;2.60;2.00;;;;;;;22.62;52.60;98987.12;108962;1259;71413;-23
2023/09/01 10:03:37;;;;;;;3.30;2.10;;;;;;;23.02;52.46;98986.84;108954;1257;60075;-24
2023/09/01 10:06:08;;;;;;;2.90;2.40;;;;;;;23.31;51.77;98986.50;108952;1260;60038;-23
2023/09/01 10:08:38;;;;;;;2.60;2.20;;;;;;;23.47;51.89;98988.03;108962;1260;73987;-23
2023/09/01 10:11:08;;;;;;;3.80;2.50;;;;;;;23.38;51.12;98991.46;109091;1258;74351;-23
2023/09/01 10:13:39;;;;;;;2.40;2.20;;;;;;;23.29;50.17;98990.02;108996;1260;72685;-23
2023/09/01 10:16:10;;;;;;;3.00;1.90;;;;;;;23.85;48.57;98981.09;109051;1258;60000;-23
2023/09/01 10:18:43;;;;;;;2.50;1.60;;;;;;;23.79;46.74;98980.30;109099;1258;61121;-23
2023/09/01 10:21:13;;;;;;;2.30;1.60;;;;;;;23.48;48.76;98979.84;108977;1259;73834;-23
2023/09/01 10:23:44;;;;;;;3.20;2.20;;;;;;;23.61;48.32;98986.90;109086;1258;73036;-23
2023/09/01 10:26:28;;;;;;;2.30;2.00;;;;;;;23.72;48.09;98981.34;108979;1259;72693;-23
2023/09/01 10:29:03;;;;;;;2.00;1.70;;;;;;;23.79;47.50;98982.27;108955;1265;60109;-23
2023/09/01 10:31:34;;;;;;;2.20;1.60;;;;;;;24.10;46.55;98982.19;108961;1260;60097;-23
2023/09/01 10:34:08;;;;;;;4.20;1.70;;;;;;;24.60;45.80;98985.65;109094;1257;73910;-23
2023/09/01 10:36:39;;;;;;;2.10;1.90;;;;;;;25.06;45.59;98980.21;108984;1259;72867;-23
2023/09/01 10:39:24;;;;;;;3.50;1.90;;;;;;;24.48;45.56;98977.23;108964;1260;72672;-23
2023/09/01 10:42:07;;;;;;;2.80;1.80;;;;;;;24.19;45.66;98975.95;108997;1257;60101;-23
2023/09/01 10:45:11;;;;;;;4.00;2.50;;;;;;;24.41;45.65;98971.71;109073;1259;60011;-23
2023/09/01 10:47:45;;;;;;;2.00;1.80;;;;;;;24.80;45.36;98961.89;109074;1259;72773;-23
2023/09/01 10:50:17;;;;;;;3.40;1.80;;;;;;;25.09;44.57;98967.04;108994;1260;74357;-23
2023/09/01 10:53:25;;;;;;;4.90;2.20;;;;;;;25.02;46.21;98969.02;109069;1259;72641;-23
2023/09/01 10:56:14;;;;;;;2.40;2.10;;;;;;;24.35;46.86;98978.98;109046;1259;58873;-23
2023/09/01 11:06:22;;;;;;;5.60;2.00;;;;;;;24.21;48.02;98985.27;102559;1294;600800;-22
2023/09/01 11:09:00;;;;;;;2.60;1.60;;;;;;;23.93;47.50;98986.11;104841;1266;61074;-22
2023/09/01 11:19:06;;;;;;;4.00;2.10;;;;;;;23.03;49.87;98991.05;102647;1292;600182;-24
2023/09/01 11:21:34;;;;;;;1.90;1.70;;;;;;;23.54;48.41;98981.08;104909;1267;61178;-23
2023/09/01 11:24:03;;;;;;;4.40;2.00;;;;;;;23.87;47.22;98976.21;104839;1266;61054;-24
2023/09/01 11:34:15;;;;;;;3.50;2.00;;;;;;;23.58;46.06;98968.85;102688;1292;600763;-22
2023/09/01 11:36:47;;;;;;;4.20;1.70;;;;;;;23.74;46.44;98971.63;104922;1270;61247;-22
2023/09/01 11:39:14;;;;;;;2.20;1.90;;;;;;;23.76;45.36;98973.66;104786;1264;61778;-24
2023/09/01 11:41:42;;;;;;;3.30;1.90;;;;;;;23.78;45.00;98964.25;104840;1270;70916;-24
2023/09/01 11:44:10;;;;;;;2.80;2.00;;;;;;;23.82;46.05;98969.09;104792;1272;73534;-24
2023/09/01 11:46:38;;;;;;;3.20;1.90;;;;;;;23.68;46.04;98970.94;104811;1267;72723;-24
2023/09/01 11:56:45;;;;;;;2.00;1.80;;;;;;;23.52;46.34;98974.27;102673;1294;600710;-22
2023/09/01 12:06:51;;;;;;;3.30;1.70;;;;;;;23.65;45.29;98969.39;102697;1291;600166;-22
2023/09/01 12:09:19;;;;;;;2.00;1.80;;;;;;;23.42;44.67;98970.48;104837;1279;61197;-22
2023/09/01 12:11:59;;;;;;;1.80;1.20;;;;;;;23.56;43.81;98970.16;105656;1262;61118;-22
2023/09/01 12:14:29;;;;;;;2.20;1.60;;;;;;;23.73;43.45;98973.28;105547;1262;72158;-24
2023/09/01 12:16:57;;;;;;;2.30;1.40;;;;;;;23.82;42.60;98967.20;105572;1260;74384;-23
2023/09/01 12:19:26;;;;;;;2.10;1.30;;;;;;;23.58;41.91;98964.68;103169;1256;3240769;-25
2023/09/01 12:21:55;;;;;;;2.10;1.10;;;;;;;23.49;41.93;98972.12;105628;1254;61063;-22
2023/09/01 12:24:23;;;;;;;1.60;1.40;;;;;;;23.55;42.66;98969.69;105752;1253;61084;-22
2023/09/01 12:26:51;;;;;;;6.10;1.60;;;;;;;23.54;42.16;98966.46;105719;1250;72296;-22
2023/09/01 12:29:19;;;;;;;4.10;1.50;;;;;;;23.34;42.36;98965.48;105904;1254;74257;-24
2023/09/01 12:31:47;;;;;;;3.10;1.40;;;;;;;23.53;42.14;98967.65;105902;1256;71398;-23